createdAt,value
2022-08-26T00:01:40.825Z,12.95
2022-08-26T00:04:43.293Z,14.57
2022-08-26T00:07:46.035Z,14.77
2022-08-26T00:16:53.096Z,14.50
2022-08-26T00:19:57.703Z,12.90
2022-08-26T00:26:03.012Z,13.35
2022-08-26T00:29:05.691Z,14.07
2022-08-26T00:32:08.145Z,12.82
2022-08-26T00:38:12.628Z,13.67
2022-08-26T00:41:17.007Z,13.45
2022-08-26T00:44:19.698Z,13.48
2022-08-26T00:47:32.152Z,12.80
2022-08-26T00:50:38.202Z,13.27
2022-08-26T00:53:50.979Z,13.68
2022-08-26T01:00:06.887Z,12.95
2022-08-26T01:03:11.496Z,12.80
2022-08-26T01:06:16.402Z,13.52
2022-08-26T01:09:20.820Z,13.05
2022-08-26T01:12:26.665Z,13.48
2022-08-26T01:15:35.136Z,13.15
2022-08-26T01:18:38.050Z,14.02
2022-08-26T01:21:54.587Z,12.90
2022-08-26T01:25:00.298Z,13.30
2022-08-26T01:28:10.735Z,12.77
2022-08-26T01:31:16.028Z,12.63
2022-08-26T01:34:32.426Z,12.65
2022-08-26T01:37:38.994Z,11.40
2022-08-26T01:40:42.985Z,12.30
2022-08-26T01:43:48.391Z,12.20
2022-08-26T01:46:52.818Z,12.82
2022-08-26T01:49:56.965Z,12.40
2022-08-26T01:53:03.784Z,12.68
2022-08-26T01:56:07.599Z,12.18
2022-08-26T01:59:12.752Z,12.15
2022-08-26T02:02:16.486Z,12.57
2022-08-26T02:05:21.304Z,13.52
2022-08-26T02:08:36.938Z,12.10
2022-08-26T02:11:39.292Z,12.55
2022-08-26T02:14:51.270Z,11.32
2022-08-26T02:17:53.458Z,12.82
2022-08-26T02:20:58.466Z,13.38
2022-08-26T02:27:10.445Z,10.80
2022-08-26T02:33:22.434Z,11.50
2022-08-26T02:39:31.998Z,12.52
2022-08-26T02:42:34.553Z,11.85
2022-08-26T02:45:37.740Z,12.13
2022-08-26T02:48:40.994Z,13.07
2022-08-26T02:54:45.526Z,10.75
2022-08-26T02:57:47.991Z,12.35
2022-08-26T03:00:53.369Z,11.82
2022-08-26T03:03:56.217Z,12.35
2022-08-26T03:10:00.777Z,12.20
2022-08-26T03:13:05.219Z,14.07
2022-08-26T03:16:08.138Z,12.07
2022-08-26T03:19:10.895Z,11.48
2022-08-26T03:25:18.089Z,12.55
2022-08-26T03:28:20.574Z,12.75
2022-08-26T03:31:24.620Z,11.88
2022-08-26T03:34:27.199Z,14.15
2022-08-26T03:37:29.866Z,13.63
2022-08-26T03:40:32.047Z,12.25
2022-08-26T03:43:34.567Z,13.45
2022-08-26T03:49:38.834Z,12.00
2022-08-26T03:52:44.029Z,12.55
2022-08-26T03:55:46.931Z,12.63
2022-08-26T03:58:54.418Z,12.02
2022-08-26T04:01:56.881Z,12.02
2022-08-26T04:04:59.012Z,12.07
2022-08-26T04:08:01.488Z,12.38
2022-08-26T04:14:12.394Z,11.50
2022-08-26T04:17:15.986Z,11.43
2022-08-26T04:20:18.851Z,10.55
2022-08-26T04:23:21.033Z,11.35
2022-08-26T04:26:24.366Z,12.23
2022-08-26T04:29:26.888Z,13.40
2022-08-26T04:32:29.350Z,13.45
2022-08-26T04:38:34.464Z,12.95
2022-08-26T04:44:39.227Z,11.90
2022-08-26T04:47:41.638Z,12.10
2022-08-26T04:50:44.218Z,12.75
2022-08-26T04:53:51.783Z,11.80
2022-08-26T04:59:56.210Z,13.25
2022-08-26T05:02:58.217Z,12.90
2022-08-26T05:06:05.296Z,11.60
2022-08-26T05:09:07.394Z,12.60
2022-08-26T05:12:09.814Z,11.23
2022-08-26T05:15:11.799Z,12.70
2022-08-26T05:18:14.870Z,16.77
2022-08-26T05:21:19.956Z,16.63
2022-08-26T05:24:22.243Z,18.83
2022-08-26T05:27:24.126Z,19.08
2022-08-26T05:30:25.986Z,19.10
2022-08-26T05:33:28.403Z,18.38
2022-08-26T05:39:33.907Z,17.80
2022-08-26T05:42:36.468Z,19.52
2022-08-26T05:45:42.341Z,17.15
2022-08-26T05:48:48.274Z,17.85
2022-08-26T05:51:50.557Z,17.45
2022-08-26T05:54:52.915Z,15.55
2022-08-26T05:57:54.777Z,14.45
2022-08-26T06:01:09.548Z,14.57
2022-08-26T06:04:11.772Z,14.00
2022-08-26T06:07:13.737Z,14.25
2022-08-26T06:10:31.503Z,13.27
2022-08-26T06:13:35.377Z,12.05
2022-08-26T06:16:40.901Z,9.88
2022-08-26T06:19:43.454Z,10.70
2022-08-26T06:25:48.754Z,11.35
2022-08-26T06:28:51.098Z,11.27
2022-08-26T06:31:56.307Z,10.93
2022-08-26T06:34:58.747Z,10.93
2022-08-26T06:38:00.905Z,11.82
2022-08-26T06:41:03.189Z,11.43
2022-08-26T06:47:08.822Z,12.38
2022-08-26T06:50:11.062Z,12.70
2022-08-26T06:53:13.879Z,10.13
2022-08-26T06:56:19.128Z,11.05
2022-08-26T06:59:21.051Z,10.93
2022-08-26T07:02:22.893Z,10.68
2022-08-26T07:08:26.879Z,10.47
2022-08-26T07:11:29.372Z,10.80
2022-08-26T07:14:34.236Z,10.75
2022-08-26T07:17:36.152Z,9.88
2022-08-26T07:20:40.036Z,9.32
2022-08-26T07:23:44.641Z,10.35
2022-08-26T07:26:47.581Z,9.02
2022-08-26T07:29:50.021Z,8.80
2022-08-26T07:32:52.563Z,9.52
2022-08-26T07:35:54.860Z,8.80
2022-08-26T07:38:57.263Z,9.13
2022-08-26T07:42:01.627Z,10.38
2022-08-26T07:45:09.628Z,8.73
2022-08-26T07:48:12.282Z,8.77
2022-08-26T07:51:15.970Z,8.82
2022-08-26T07:54:18.816Z,7.78
2022-08-26T07:57:21.165Z,7.93
2022-08-26T08:00:24.074Z,8.50
2022-08-26T08:03:26.560Z,8.98
2022-08-26T08:06:28.667Z,7.43
2022-08-26T08:09:30.995Z,7.10
2022-08-26T08:12:32.899Z,6.88
2022-08-26T08:15:36.416Z,7.35
2022-08-26T08:18:38.341Z,7.47
2022-08-26T08:21:43.873Z,7.47
2022-08-26T08:24:46.170Z,6.85
2022-08-26T08:27:52.381Z,7.00
2022-08-26T08:30:54.324Z,6.38
2022-08-26T08:33:56.354Z,6.85
2022-08-26T08:36:58.532Z,6.95
2022-08-26T08:40:02.793Z,5.82
2022-08-26T08:43:11.917Z,6.53
2022-08-26T08:46:16.460Z,6.97
2022-08-26T08:49:19.474Z,7.57
2022-08-26T08:52:31.206Z,7.50
2022-08-26T08:56:01.351Z,7.45
2022-08-26T08:59:03.662Z,7.03
2022-08-26T09:02:24.186Z,7.68
2022-08-26T09:05:31.196Z,6.45
2022-08-26T09:08:35.026Z,6.63
2022-08-26T09:11:37.481Z,6.43
2022-08-26T09:14:39.880Z,6.82
2022-08-26T09:18:08.886Z,5.78
2022-08-26T09:21:15.366Z,6.05
2022-08-26T09:24:20.242Z,5.85
2022-08-26T09:27:50.505Z,5.47
2022-08-26T09:31:02.069Z,6.60
2022-08-26T09:34:26.042Z,6.97
2022-08-26T09:41:03.568Z,6.20
2022-08-26T09:44:19.430Z,5.47
2022-08-26T09:47:30.385Z,6.43
2022-08-26T09:50:38.987Z,6.28
2022-08-26T09:54:23.854Z,6.40
2022-08-26T09:57:35.529Z,7.18
2022-08-26T10:00:55.677Z,7.03
2022-08-26T10:04:04.233Z,6.32
2022-08-26T10:07:07.213Z,7.20
2022-08-26T10:10:38.352Z,6.22
2022-08-26T10:13:48.564Z,6.97
2022-08-26T10:17:14.633Z,5.95
2022-08-26T10:20:28.529Z,5.85
2022-08-26T10:23:36.681Z,6.82
2022-08-26T10:26:49.473Z,6.80
2022-08-26T10:29:56.552Z,6.13
2022-08-26T10:33:05.959Z,6.38
2022-08-26T10:36:15.286Z,6.70
2022-08-26T10:39:28.579Z,6.47
2022-08-26T10:42:37.704Z,5.50
2022-08-26T10:45:47.005Z,5.35
2022-08-26T10:48:59.991Z,5.30
2022-08-26T10:52:20.816Z,5.22
2022-08-26T10:55:39.559Z,5.40
2022-08-26T10:58:41.853Z,5.53
2022-08-26T11:02:08.734Z,5.45
2022-08-26T11:05:21.769Z,5.20
2022-08-26T11:08:28.965Z,5.43
2022-08-26T11:11:40.345Z,4.90
2022-08-26T11:14:53.023Z,5.18
2022-08-26T11:18:10.359Z,4.80
2022-08-26T11:21:52.163Z,5.78
2022-08-26T11:24:56.861Z,5.32
2022-08-26T11:27:59.812Z,5.45
2022-08-26T11:31:05.065Z,6.40
2022-08-26T11:34:13.695Z,5.53
2022-08-26T11:37:18.044Z,5.63
2022-08-26T11:40:25.103Z,5.78
2022-08-26T11:43:30.434Z,5.20
2022-08-26T11:46:32.463Z,5.22
2022-08-26T11:49:34.378Z,5.65
2022-08-26T11:52:36.337Z,5.00
2022-08-26T11:55:43.764Z,4.32
2022-08-26T11:58:47.850Z,5.13
2022-08-26T12:01:52.000Z,5.05
2022-08-26T12:04:56.114Z,5.00
2022-08-26T12:08:06.288Z,5.25
2022-08-26T12:11:22.442Z,5.45
2022-08-26T12:14:26.005Z,4.63
2022-08-26T12:17:29.762Z,4.55
2022-08-26T12:20:38.884Z,4.88
2022-08-26T12:23:47.042Z,5.32
2022-08-26T12:26:49.298Z,5.05
2022-08-26T12:30:01.364Z,5.05
2022-08-26T12:33:22.321Z,4.95
2022-08-26T12:36:29.937Z,5.20
2022-08-26T12:39:37.846Z,4.40
2022-08-26T12:42:41.919Z,5.53
2022-08-26T12:45:56.460Z,4.78
2022-08-26T12:48:58.482Z,4.63
2022-08-26T12:52:00.931Z,4.53
2022-08-26T12:55:25.713Z,5.43
2022-08-26T12:58:30.504Z,6.07
2022-08-26T13:01:42.186Z,6.63
2022-08-26T13:04:45.345Z,6.75
2022-08-26T13:08:13.815Z,4.90
2022-08-26T13:11:22.384Z,6.47
2022-08-26T13:14:24.847Z,5.40
2022-08-26T13:17:29.383Z,4.82
2022-08-26T13:20:32.119Z,5.93
2022-08-26T13:23:34.466Z,5.85
2022-08-26T13:26:36.394Z,4.97
2022-08-26T13:29:38.804Z,5.15
2022-08-26T13:32:41.803Z,6.25
2022-08-26T13:35:45.677Z,5.57
2022-08-26T13:38:48.418Z,4.95
2022-08-26T13:41:54.751Z,5.32
2022-08-26T13:44:56.646Z,4.80
2022-08-26T13:47:59.006Z,5.45
2022-08-26T13:51:01.735Z,4.35
2022-08-26T13:54:05.513Z,5.47
2022-08-26T13:57:07.890Z,5.38
2022-08-26T14:00:11.068Z,5.25
2022-08-26T14:03:13.733Z,4.95
2022-08-26T14:06:16.087Z,5.45
2022-08-26T14:09:18.034Z,4.78
2022-08-26T14:12:20.359Z,4.25
2022-08-26T14:15:22.759Z,4.65
2022-08-26T14:18:28.801Z,4.85
2022-08-26T14:21:33.456Z,4.90
2022-08-26T14:24:35.789Z,5.13
2022-08-26T14:27:38.184Z,4.97
2022-08-26T14:30:46.576Z,5.47
2022-08-26T14:33:48.588Z,4.55
2022-08-26T14:36:50.869Z,4.80
2022-08-26T14:39:52.937Z,4.90
2022-08-26T14:42:55.326Z,5.10
2022-08-26T14:46:01.277Z,5.85
2022-08-26T14:49:07.272Z,4.30
2022-08-26T14:52:12.313Z,5.13
2022-08-26T14:55:14.724Z,5.57
2022-08-26T14:58:17.173Z,5.38
2022-08-26T15:01:19.530Z,5.32
2022-08-26T15:04:22.357Z,5.13
2022-08-26T15:07:24.663Z,5.57
2022-08-26T15:10:27.047Z,5.32
2022-08-26T15:13:29.701Z,5.03
2022-08-26T15:16:32.075Z,5.25
2022-08-26T15:19:35.513Z,5.68
2022-08-26T15:22:41.658Z,5.07
2022-08-26T15:25:44.584Z,4.50
2022-08-26T15:29:08.397Z,6.38
2022-08-26T15:32:10.749Z,4.38
2022-08-26T15:35:12.743Z,5.45
2022-08-26T15:38:15.071Z,5.30
2022-08-26T15:41:17.473Z,5.03
2022-08-26T15:44:19.839Z,4.88
2022-08-26T15:47:22.137Z,5.70
2022-08-26T15:50:24.707Z,5.00
2022-08-26T15:53:28.236Z,4.45
2022-08-26T15:56:32.747Z,5.40
2022-08-26T15:59:36.791Z,5.45
2022-08-26T16:02:39.142Z,4.88
2022-08-26T16:05:42.568Z,5.95
2022-08-26T16:08:44.932Z,4.78
2022-08-26T16:11:47.229Z,5.47
2022-08-26T16:14:49.188Z,25.75
2022-08-26T16:17:55.031Z,54.28
2022-08-26T16:21:12.853Z,4.65
2022-08-26T16:24:16.141Z,5.65
2022-08-26T16:27:18.488Z,5.93
2022-08-26T16:30:25.428Z,5.80
2022-08-26T16:33:29.586Z,6.90
2022-08-26T16:36:32.191Z,9.13
2022-08-26T16:39:34.122Z,9.93
2022-08-26T16:42:42.178Z,9.38
2022-08-26T16:45:44.522Z,51.08
2022-08-26T16:48:46.834Z,22.60
2022-08-26T16:51:49.166Z,31.25
2022-08-26T16:54:51.505Z,15.85
2022-08-26T16:57:53.825Z,6.10
2022-08-26T17:00:56.955Z,11.18
2022-08-26T17:03:59.278Z,18.83
2022-08-26T17:07:01.618Z,9.88
2022-08-26T17:10:07.404Z,9.32
2022-08-26T17:13:09.954Z,6.00
2022-08-26T17:16:13.270Z,6.68
2022-08-26T17:19:16.153Z,9.75
2022-08-26T17:22:18.696Z,4.90
2022-08-26T17:25:28.323Z,6.75
2022-08-26T17:28:30.420Z,5.88
2022-08-26T17:31:32.789Z,7.20
2022-08-26T17:34:34.829Z,6.18
2022-08-26T17:37:37.618Z,5.85
2022-08-26T17:40:40.129Z,6.32
2022-08-26T17:43:42.801Z,5.15
2022-08-26T17:46:45.147Z,5.68
2022-08-26T17:49:47.510Z,6.45
2022-08-26T17:55:52.513Z,6.50
2022-08-26T17:58:56.986Z,6.75
2022-08-26T18:01:58.997Z,7.28
2022-08-26T18:05:01.394Z,6.88
2022-08-26T18:11:14.835Z,6.30
2022-08-26T18:14:16.737Z,6.95
2022-08-26T18:17:19.489Z,6.88
2022-08-26T18:20:21.967Z,7.05
2022-08-26T18:26:31.987Z,6.88
2022-08-26T18:29:34.432Z,6.32
2022-08-26T18:35:45.342Z,5.88
2022-08-26T18:38:47.904Z,8.18
2022-08-26T18:41:52.782Z,6.13
2022-08-26T18:47:56.595Z,7.00
2022-08-26T18:50:59.133Z,7.22
2022-08-26T18:54:02.855Z,5.88
2022-08-26T18:57:05.252Z,6.80
2022-08-26T19:00:10.029Z,7.05
2022-08-26T19:03:18.491Z,7.97
2022-08-26T19:06:23.445Z,6.50
2022-08-26T19:09:25.796Z,6.43
2022-08-26T19:15:30.200Z,6.77
2022-08-26T19:18:32.831Z,6.40
2022-08-26T19:21:37.791Z,7.45
2022-08-26T19:24:39.752Z,6.47
2022-08-26T19:27:42.328Z,6.35
2022-08-26T19:30:49.073Z,6.70
2022-08-26T19:33:52.357Z,6.57
2022-08-26T19:36:54.979Z,5.90
2022-08-26T19:39:57.588Z,6.70
2022-08-26T19:43:00.176Z,6.70
2022-08-26T19:46:16.493Z,6.88
2022-08-26T19:49:19.188Z,6.20
2022-08-26T19:52:22.935Z,7.57
2022-08-26T19:55:33.076Z,7.40
2022-08-26T19:58:35.454Z,7.47
2022-08-26T20:01:37.693Z,7.80
2022-08-26T20:07:42.759Z,6.17
2022-08-26T20:10:44.806Z,6.88
2022-08-26T20:13:48.060Z,6.47
2022-08-26T20:16:50.721Z,6.60
2022-08-26T20:19:53.406Z,6.60
2022-08-26T20:22:55.975Z,7.80
2022-08-26T20:25:58.372Z,7.30
2022-08-26T20:29:00.935Z,6.75
2022-08-26T20:32:04.472Z,7.70
2022-08-26T20:35:08.739Z,7.57
2022-08-26T20:38:11.302Z,7.57
2022-08-26T20:41:14.491Z,6.53
2022-08-26T20:44:17.044Z,7.15
2022-08-26T20:47:19.306Z,7.07
2022-08-26T20:50:21.611Z,7.63
2022-08-26T20:53:24.326Z,7.13
2022-08-26T20:56:27.906Z,10.45
2022-08-26T20:59:29.983Z,6.68
2022-08-26T21:02:32.322Z,7.18
2022-08-26T21:05:35.663Z,6.95
2022-08-26T21:08:42.113Z,8.00
2022-08-26T21:11:45.639Z,7.93
2022-08-26T21:14:49.794Z,8.00
2022-08-26T21:17:52.334Z,7.47
2022-08-26T21:20:54.273Z,7.35
2022-08-26T21:23:56.311Z,6.45
2022-08-26T21:26:58.785Z,7.07
2022-08-26T21:33:03.008Z,7.07
2022-08-26T21:36:06.729Z,6.80
2022-08-26T21:39:11.764Z,7.43
2022-08-26T21:42:14.602Z,7.20
2022-08-26T21:45:16.531Z,6.53
2022-08-26T21:48:19.079Z,6.88
2022-08-26T21:54:24.514Z,6.72
2022-08-26T22:00:28.638Z,7.27
2022-08-26T22:03:30.655Z,7.38
2022-08-26T22:06:47.006Z,7.72
2022-08-26T22:09:49.320Z,7.03
2022-08-26T22:12:51.676Z,6.80
2022-08-26T22:15:53.580Z,7.20
2022-08-26T22:18:55.546Z,7.95
2022-08-26T22:21:58.275Z,6.95
2022-08-26T22:25:00.687Z,6.82
2022-08-26T22:31:07.902Z,6.75
2022-08-26T22:34:12.576Z,7.43
2022-08-26T22:37:14.553Z,7.55
2022-08-26T22:40:16.950Z,8.35
2022-08-26T22:46:23.915Z,8.15
2022-08-26T22:49:26.277Z,6.80
2022-08-26T22:52:28.164Z,7.95
2022-08-26T22:55:30.480Z,7.28
2022-08-26T22:58:32.790Z,6.45
2022-08-26T23:01:40.638Z,7.47
2022-08-26T23:04:42.585Z,7.82
2022-08-26T23:07:45.057Z,9.20
2022-08-26T23:13:49.589Z,7.30
2022-08-26T23:16:52.476Z,7.25
2022-08-26T23:19:54.605Z,7.65
2022-08-26T23:22:57.094Z,7.53
2022-08-26T23:29:01.830Z,7.90
2022-08-26T23:32:04.705Z,6.82
2022-08-26T23:35:08.163Z,7.53
2022-08-26T23:38:13.922Z,6.45
2022-08-26T23:41:16.296Z,7.55
2022-08-26T23:44:19.602Z,8.63
2022-08-26T23:47:22.114Z,7.00
2022-08-26T23:53:27.994Z,7.20
2022-08-26T23:59:32.790Z,6.45
